Time,TemperatureF,DewpointF,PressureIn,WindDirection,WindDirectionDegrees,WindSpeedMPH,WindSpeedGustMPH,Humidity,HourlyPrecipIn,Conditions,Clouds,dailyrainin,SolarRadiationWatts/m^2,SoftwareType,DateUTC
2013-01-23 00:02:00,-7.0,-19.0,-100.00,WSW,244,4.0,8.0,56,0.00,,,0.00,0.000000,,2013-01-23 06:02:00,
2013-01-23 00:12:00,-8.0,-19.0,-100.00,WSW,257,4.0,7.0,56,0.00,,,0.00,0.000000,,2013-01-23 06:12:00,
2013-01-23 00:33:00,-8.0,-19.0,-100.00,WSW,257,4.0,7.0,56,0.00,,,0.00,0.000000,,2013-01-23 06:33:00,
2013-01-23 00:43:00,-8.0,-19.0,-100.00,WSW,257,4.0,7.0,56,0.00,,,0.00,0.000000,,2013-01-23 06:43:00,
2013-01-23 00:53:00,-8.0,-19.0,-100.00,WSW,257,4.0,7.0,56,0.00,,,0.00,0.000000,,2013-01-23 06:53:00,
2013-01-23 01:02:00,-8.0,-19.0,-100.00,WSW,257,4.0,7.0,56,0.00,,,0.00,0.000000,,2013-01-23 07:02:00,
2013-01-23 01:12:00,-10.0,-20.0,-100.00,West,262,3.0,6.0,60,0.00,,,0.00,0.000000,,2013-01-23 07:12:00,
2013-01-23 01:33:00,-10.0,-20.0,-100.00,West,262,3.0,6.0,60,0.00,,,0.00,0.000000,,2013-01-23 07:33:00,
2013-01-23 01:43:00,-10.0,-20.0,-100.00,West,262,3.0,6.0,60,0.00,,,0.00,0.000000,,2013-01-23 07:43:00,
2013-01-23 01:53:00,-10.0,-20.0,-100.00,West,262,3.0,6.0,60,0.00,,,0.00,0.000000,,2013-01-23 07:53:00,
2013-01-23 02:02:00,-10.0,-20.0,-100.00,West,262,3.0,6.0,60,0.00,,,0.00,0.000000,,2013-01-23 08:02:00,
2013-01-23 02:12:00,-10.0,-19.0,-100.00,West,267,3.0,5.0,62,0.00,,,0.00,0.000000,,2013-01-23 08:12:00,
2013-01-23 02:33:00,-10.0,-19.0,-100.00,West,267,3.0,5.0,62,0.00,,,0.00,0.000000,,2013-01-23 08:33:00,
2013-01-23 02:43:00,-10.0,-19.0,-100.00,West,267,3.0,5.0,62,0.00,,,0.00,0.000000,,2013-01-23 08:43:00,
2013-01-23 02:53:00,-10.0,-19.0,-100.00,West,267,3.0,5.0,62,0.00,,,0.00,0.000000,,2013-01-23 08:53:00,
2013-01-23 03:03:00,-10.0,-19.0,-100.00,West,267,3.0,5.0,62,0.00,,,0.00,0.000000,,2013-01-23 09:03:00,
2013-01-23 03:12:00,-12.0,-20.0,-100.00,WNW,286,3.0,4.0,66,0.00,,,0.00,0.000000,,2013-01-23 09:12:00,
2013-01-23 03:33:00,-12.0,-20.0,-100.00,WNW,286,3.0,4.0,66,0.00,,,0.00,0.000000,,2013-01-23 09:33:00,
2013-01-23 03:43:00,-12.0,-20.0,-100.00,WNW,286,3.0,4.0,66,0.00,,,0.00,0.000000,,2013-01-23 09:43:00,
2013-01-23 03:53:00,-12.0,-20.0,-100.00,WNW,286,3.0,4.0,66,0.00,,,0.00,0.000000,,2013-01-23 09:53:00,
2013-01-23 04:03:00,-12.0,-20.0,-100.00,WNW,286,3.0,4.0,66,0.00,,,0.00,0.000000,,2013-01-23 10:03:00,
2013-01-23 04:12:00,-12.0,-21.0,-100.00,West,267,3.0,5.0,64,0.00,,,0.00,0.000000,,2013-01-23 10:12:00,
2013-01-23 04:33:00,-12.0,-21.0,-100.00,West,267,3.0,5.0,64,0.00,,,0.00,0.000000,,2013-01-23 10:33:00,
2013-01-23 04:43:00,-12.0,-21.0,-100.00,West,267,3.0,5.0,64,0.00,,,0.00,0.000000,,2013-01-23 10:43:00,
2013-01-23 04:53:00,-12.0,-21.0,-100.00,West,267,3.0,5.0,64,0.00,,,0.00,0.000000,,2013-01-23 10:53:00,
2013-01-23 05:02:00,-12.0,-21.0,-100.00,West,267,3.0,5.0,64,0.00,,,0.00,0.000000,,2013-01-23 11:02:00,
2013-01-23 05:12:00,-12.0,-20.0,-100.00,WNW,286,4.0,7.0,65,0.00,,,0.00,0.000000,,2013-01-23 11:12:00,
2013-01-23 05:34:00,-12.0,-20.0,-100.00,WNW,286,4.0,7.0,65,0.00,,,0.00,0.000000,,2013-01-23 11:34:00,
2013-01-23 05:43:00,-12.0,-20.0,-100.00,WNW,286,4.0,7.0,65,0.00,,,0.00,0.000000,,2013-01-23 11:43:00,
2013-01-23 05:53:00,-12.0,-20.0,-100.00,WNW,286,4.0,7.0,65,0.00,,,0.00,0.000000,,2013-01-23 11:53:00,
2013-01-23 06:03:00,-12.0,-20.0,-100.00,WNW,286,4.0,7.0,65,0.00,,,0.00,0.000000,,2013-01-23 12:03:00,
2013-01-23 06:12:00,-10.0,-19.0,-100.00,West,266,4.0,10.0,64,0.00,,,0.00,0.000000,,2013-01-23 12:12:00,
2013-01-23 06:33:00,-10.0,-19.0,-100.00,West,266,4.0,10.0,64,0.00,,,0.00,0.000000,,2013-01-23 12:33:00,
2013-01-23 06:43:00,-10.0,-19.0,-100.00,West,266,4.0,10.0,64,0.00,,,0.00,0.000000,,2013-01-23 12:43:00,
2013-01-23 06:53:00,-10.0,-19.0,-100.00,West,266,4.0,10.0,64,0.00,,,0.00,0.000000,,2013-01-23 12:53:00,
2013-01-23 07:03:00,-10.0,-19.0,-100.00,West,266,4.0,10.0,64,0.00,,,0.00,0.000000,,2013-01-23 13:03:00,
2013-01-23 07:12:00,-8.0,-17.0,-100.00,WNW,284,5.0,9.0,64,0.00,,,0.00,0.000000,,2013-01-23 13:12:00,
2013-01-23 07:33:00,-8.0,-17.0,-100.00,WNW,284,5.0,9.0,64,0.00,,,0.00,0.000000,,2013-01-23 13:33:00,
2013-01-23 07:43:00,-8.0,-17.0,-100.00,WNW,284,5.0,9.0,64,0.00,,,0.00,0.000000,,2013-01-23 13:43:00,
2013-01-23 07:53:00,-8.0,-17.0,-100.00,WNW,284,5.0,9.0,64,0.00,,,0.00,0.000000,,2013-01-23 13:53:00,
2013-01-23 08:03:00,-8.0,-17.0,-100.00,WNW,284,5.0,9.0,64,0.00,,,0.00,0.000000,,2013-01-23 14:03:00,
2013-01-23 08:12:00,-7.0,-16.0,-100.00,WNW,294,4.0,9.0,63,0.00,,,0.00,14.000000,,2013-01-23 14:12:00,
2013-01-23 08:33:00,-7.0,-16.0,-100.00,WNW,294,4.0,9.0,63,0.00,,,0.00,14.000000,,2013-01-23 14:33:00,
2013-01-23 08:43:00,-7.0,-16.0,-100.00,WNW,294,4.0,9.0,63,0.00,,,0.00,14.000000,,2013-01-23 14:43:00,
2013-01-23 08:53:00,-7.0,-16.0,-100.00,WNW,294,4.0,9.0,63,0.00,,,0.00,14.000000,,2013-01-23 14:53:00,
2013-01-23 09:03:00,-7.0,-16.0,-100.00,WNW,294,4.0,9.0,63,0.00,,,0.00,14.000000,,2013-01-23 15:03:00,
2013-01-23 09:12:00,-3.0,-14.0,-100.00,WNW,295,6.0,9.0,58,0.00,,,0.00,72.000000,,2013-01-23 15:12:00,
2013-01-23 09:33:00,-3.0,-14.0,-100.00,WNW,295,6.0,9.0,58,0.00,,,0.00,72.000000,,2013-01-23 15:33:00,
2013-01-23 09:43:00,-3.0,-14.0,-100.00,WNW,295,6.0,9.0,58,0.00,,,0.00,72.000000,,2013-01-23 15:43:00,
2013-01-23 09:53:00,-3.0,-14.0,-100.00,WNW,295,6.0,9.0,58,0.00,,,0.00,72.000000,,2013-01-23 15:53:00,
2013-01-23 10:03:00,-3.0,-14.0,-100.00,WNW,295,6.0,9.0,58,0.00,,,0.00,72.000000,,2013-01-23 16:03:00,
2013-01-23 10:12:00,4.0,-13.0,-100.00,WNW,300,7.0,13.0,45,0.00,,,0.00,233.000000,,2013-01-23 16:12:00,
2013-01-23 10:33:00,4.0,-13.0,-100.00,WNW,300,7.0,13.0,45,0.00,,,0.00,233.000000,,2013-01-23 16:33:00,
2013-01-23 10:43:00,4.0,-13.0,-100.00,WNW,300,7.0,13.0,45,0.00,,,0.00,233.000000,,2013-01-23 16:43:00,
2013-01-23 10:53:00,4.0,-13.0,-100.00,WNW,300,7.0,13.0,45,0.00,,,0.00,233.000000,,2013-01-23 16:53:00,
2013-01-23 11:03:00,4.0,-13.0,-100.00,WNW,300,7.0,13.0,45,0.00,,,0.00,233.000000,,2013-01-23 17:03:00,
2013-01-23 11:12:00,5.0,-13.0,-100.00,West,271,6.0,14.0,43,0.00,,,0.00,265.000000,,2013-01-23 17:12:00,
2013-01-23 11:34:00,5.0,-13.0,-100.00,West,271,6.0,14.0,43,0.00,,,0.00,265.000000,,2013-01-23 17:34:00,
2013-01-23 11:43:00,5.0,-13.0,-100.00,West,271,6.0,14.0,43,0.00,,,0.00,265.000000,,2013-01-23 17:43:00,
2013-01-23 11:53:00,5.0,-13.0,-100.00,West,271,6.0,14.0,43,0.00,,,0.00,265.000000,,2013-01-23 17:53:00,
2013-01-23 12:03:00,5.0,-13.0,-100.00,West,271,6.0,14.0,43,0.00,,,0.00,265.000000,,2013-01-23 18:03:00,
2013-01-23 12:12:00,8.0,-10.0,-100.00,West,280,6.0,13.0,43,0.00,,,0.00,299.000000,,2013-01-23 18:12:00,
2013-01-23 12:33:00,8.0,-10.0,-100.00,West,280,6.0,13.0,43,0.00,,,0.00,299.000000,,2013-01-23 18:33:00,
2013-01-23 12:44:00,8.0,-10.0,-100.00,West,280,6.0,13.0,43,0.00,,,0.00,299.000000,,2013-01-23 18:44:00,
2013-01-23 12:53:00,8.0,-10.0,-100.00,West,280,6.0,13.0,43,0.00,,,0.00,299.000000,,2013-01-23 18:53:00,
2013-01-23 13:03:00,8.0,-10.0,-100.00,West,280,6.0,13.0,43,0.00,,,0.00,299.000000,,2013-01-23 19:03:00,
2013-01-23 13:12:00,10.0,-8.0,-100.00,WNW,285,6.0,12.0,44,0.00,,,0.00,311.000000,,2013-01-23 19:12:00,
2013-01-23 13:33:00,10.0,-8.0,-100.00,WNW,285,6.0,12.0,44,0.00,,,0.00,311.000000,,2013-01-23 19:33:00,
2013-01-23 13:43:00,10.0,-8.0,-100.00,WNW,285,6.0,12.0,44,0.00,,,0.00,311.000000,,2013-01-23 19:43:00,
2013-01-23 13:53:00,10.0,-8.0,-100.00,WNW,285,6.0,12.0,44,0.00,,,0.00,311.000000,,2013-01-23 19:53:00,
2013-01-23 14:03:00,10.0,-8.0,-100.00,WNW,285,6.0,12.0,44,0.00,,,0.00,311.000000,,2013-01-23 20:03:00,
2013-01-23 15:12:00,9.0,0.0,-100.00,WNW,284,6.0,11.0,66,-99.99,,,0.00,105.000000,,2013-01-23 21:12:00,
2013-01-23 15:43:00,9.0,0.0,-100.00,WNW,284,6.0,11.0,66,-99.99,,,0.00,105.000000,,2013-01-23 21:43:00,
2013-01-23 15:53:00,9.0,0.0,-100.00,WNW,284,6.0,11.0,66,-99.99,,,0.00,105.000000,,2013-01-23 21:53:00,
2013-01-23 16:02:00,9.0,0.0,-100.00,WNW,284,6.0,11.0,66,-99.99,,,0.00,105.000000,,2013-01-23 22:02:00,
2013-01-23 16:12:00,10.0,-2.0,-100.00,NW,310,7.0,13.0,57,0.00,,,0.00,93.000000,,2013-01-23 22:12:00,
2013-01-23 17:03:00,10.0,-2.0,-100.00,NW,310,7.0,13.0,57,0.00,,,0.00,93.000000,,2013-01-23 23:03:00,
2013-01-23 17:12:00,8.0,0.0,-100.00,NW,306,5.0,11.0,70,0.00,,,0.00,12.000000,,2013-01-23 23:12:00,
2013-01-23 17:33:00,8.0,0.0,-100.00,NW,306,5.0,11.0,70,0.00,,,0.00,12.000000,,2013-01-23 23:33:00,
2013-01-23 17:43:00,8.0,0.0,-100.00,NW,306,5.0,11.0,70,0.00,,,0.00,12.000000,,2013-01-23 23:43:00,
2013-01-23 17:53:00,8.0,0.0,-100.00,NW,306,5.0,11.0,70,0.00,,,0.00,12.000000,,2013-01-23 23:53:00,
2013-01-23 18:03:00,8.0,0.0,-100.00,NW,306,5.0,11.0,70,0.00,,,0.00,12.000000,,2013-01-24 00:03:00,
2013-01-23 18:12:00,7.0,-1.0,-100.00,NW,319,6.0,9.0,70,0.00,,,0.00,0.000000,,2013-01-24 00:12:00,
2013-01-23 18:33:00,7.0,-1.0,-100.00,NW,319,6.0,9.0,70,0.00,,,0.00,0.000000,,2013-01-24 00:33:00,
2013-01-23 18:43:00,7.0,-1.0,-100.00,NW,319,6.0,9.0,70,0.00,,,0.00,0.000000,,2013-01-24 00:43:00,
2013-01-23 18:53:00,7.0,-1.0,-100.00,NW,319,6.0,9.0,70,0.00,,,0.00,0.000000,,2013-01-24 00:53:00,
2013-01-23 19:03:00,7.0,-1.0,-100.00,NW,319,6.0,9.0,70,0.00,,,0.00,0.000000,,2013-01-24 01:03:00,
2013-01-23 19:12:00,6.0,-5.0,-100.00,NNW,342,9.0,22.0,61,0.00,,,0.00,0.000000,,2013-01-24 01:12:00,
2013-01-23 19:43:00,6.0,-5.0,-100.00,NNW,342,9.0,22.0,61,0.00,,,0.00,0.000000,,2013-01-24 01:43:00,
2013-01-23 19:52:00,6.0,-5.0,-100.00,NNW,342,9.0,22.0,61,0.00,,,0.00,0.000000,,2013-01-24 01:52:00,
2013-01-23 20:02:00,6.0,-5.0,-100.00,NNW,342,9.0,22.0,61,0.00,,,0.00,0.000000,,2013-01-24 02:02:00,
2013-01-23 20:12:00,5.0,-5.0,-100.00,NNW,333,8.0,18.0,61,0.00,,,0.00,0.000000,,2013-01-24 02:12:00,
2013-01-23 20:33:00,5.0,-5.0,-100.00,NNW,333,8.0,18.0,61,0.00,,,0.00,0.000000,,2013-01-24 02:33:00,
2013-01-23 20:43:00,5.0,-5.0,-100.00,NNW,333,8.0,18.0,61,0.00,,,0.00,0.000000,,2013-01-24 02:43:00,
2013-01-23 20:52:00,5.0,-5.0,-100.00,NNW,333,8.0,18.0,61,0.00,,,0.00,0.000000,,2013-01-24 02:52:00,
2013-01-23 21:02:00,5.0,-5.0,-100.00,NNW,333,8.0,18.0,61,0.00,,,0.00,0.000000,,2013-01-24 03:02:00,
2013-01-23 21:12:00,4.0,-6.0,-100.00,NNW,330,8.0,19.0,63,0.00,,,0.00,0.000000,,2013-01-24 03:12:00,
2013-01-23 21:33:00,4.0,-6.0,-100.00,NNW,330,8.0,19.0,63,0.00,,,0.00,0.000000,,2013-01-24 03:33:00,
2013-01-23 21:43:00,4.0,-6.0,-100.00,NNW,330,8.0,19.0,63,0.00,,,0.00,0.000000,,2013-01-24 03:43:00,
2013-01-23 21:53:00,4.0,-6.0,-100.00,NNW,330,8.0,19.0,63,0.00,,,0.00,0.000000,,2013-01-24 03:53:00,
2013-01-23 22:02:00,4.0,-6.0,-100.00,NNW,330,8.0,19.0,63,0.00,,,0.00,0.000000,,2013-01-24 04:02:00,
2013-01-23 22:12:00,3.0,-6.0,-100.00,NNW,339,8.0,18.0,64,0.00,,,0.00,0.000000,,2013-01-24 04:12:00,
2013-01-23 22:33:00,3.0,-6.0,-100.00,NNW,339,8.0,18.0,64,0.00,,,0.00,0.000000,,2013-01-24 04:33:00,
2013-01-23 22:43:00,3.0,-6.0,-100.00,NNW,339,8.0,18.0,64,0.00,,,0.00,0.000000,,2013-01-24 04:43:00,
2013-01-23 22:53:00,3.0,-6.0,-100.00,NNW,339,8.0,18.0,64,0.00,,,0.00,0.000000,,2013-01-24 04:53:00,
2013-01-23 23:03:00,3.0,-6.0,-100.00,NNW,339,8.0,18.0,64,0.00,,,0.00,0.000000,,2013-01-24 05:03:00,
2013-01-23 23:12:00,2.0,-6.0,-100.00,NW,323,7.0,18.0,70,0.00,,,0.00,0.000000,,2013-01-24 05:12:00,
2013-01-23 23:33:00,2.0,-6.0,-100.00,NW,323,7.0,18.0,70,0.00,,,0.00,0.000000,,2013-01-24 05:33:00,
2013-01-23 23:43:00,2.0,-6.0,-100.00,NW,323,7.0,18.0,70,0.00,,,0.00,0.000000,,2013-01-24 05:43:00,
2013-01-23 23:53:00,2.0,-6.0,-100.00,NW,323,7.0,18.0,70,0.00,,,0.00,0.000000,,2013-01-24 05:53:00,